Time;durP1;ratioP1;P1;durP2;ratioP2;P2;SDS_P1;SDS_P2;PMS_P1;PMS_P2;Temp;Humidity;BMP_temperature;BMP_pressure;BME280_temperature;BME280_humidity;BME280_pressure;Samples;Min_cycle;Max_cycle;Signal;HPM_P1;HPM_P2
2023/05/17 00:01:24;;;;;;;;;;;;;;;8.15;79.24;102434.75;5051036;28;19991;-77
2023/05/17 00:03:52;;;;;;;;;;;;;;;8.15;80.46;102440.03;5052319;28;19913;-77
2023/05/17 00:06:18;;;;;;;;;;;;;;;8.17;81.33;102435.66;5051814;28;19925;-77
2023/05/17 00:08:43;;;;;;;;;;;;;;;8.15;81.88;102440.03;5052593;28;19932;-77
2023/05/17 00:11:09;;;;;;;;;;;;;;;8.17;81.84;102447.09;5048264;28;19974;-78
2023/05/17 00:13:34;;;;;;;;;;;;;;;8.16;81.51;102439.19;5059680;28;19974;-78
2023/05/17 00:16:00;;;;;;;;;;;;;;;8.13;81.47;102441.75;5034344;28;19929;-77
2023/05/17 00:18:25;;;;;;;;;;;;;;;8.10;82.35;102447.88;5041705;28;19920;-76
2023/05/17 00:20:50;;;;;;;;;;;;;;;8.08;82.02;102441.69;5036923;28;19921;-76
2023/05/17 00:23:16;;;;;;;;;;;;;;;8.04;83.89;102441.66;5051535;28;19928;-77
2023/05/17 00:25:41;;;;;;;;;;;;;;;8.04;83.00;102442.53;5050076;28;19917;-77
2023/05/17 00:28:07;;;;;;;;;;;;;;;8.00;83.78;102440.69;5045490;28;19924;-77
2023/05/17 00:30:32;;;;;;;;;;;;;;;7.95;83.59;102445.91;5046170;28;19925;-77
2023/05/17 00:32:58;;;;;;;;;;;;;;;7.92;83.69;102444.97;5041028;28;19991;-77
2023/05/17 00:35:23;;;;;;;;;;;;;;;7.92;84.01;102450.25;5048874;28;19916;-76
2023/05/17 00:37:50;;;;;;;;;;;;;;;7.90;86.12;102444.06;5034726;28;20025;-76
2023/05/17 00:40:17;;;;;;;;;;;;;;;7.92;84.43;102444.97;5040918;28;20348;-76
2023/05/17 00:42:42;;;;;;;;;;;;;;;7.89;81.96;102442.31;5050226;28;19966;-75
2023/05/17 00:45:08;;;;;;;;;;;;;;;7.89;83.73;102447.59;5043224;28;20336;-75
2023/05/17 00:47:33;;;;;;;;;;;;;;;7.89;82.24;102439.66;5046262;28;19913;-75
2023/05/17 00:49:59;;;;;;;;;;;;;;;7.85;84.18;102433.44;5051901;28;20283;-76
2023/05/17 00:52:25;;;;;;;;;;;;;;;7.86;84.62;102435.25;5049210;28;20287;-76
2023/05/17 00:54:50;;;;;;;;;;;;;;;7.88;83.52;102429.97;5051818;28;20023;-76
2023/05/17 00:57:17;;;;;;;;;;;;;;;7.86;83.57;102431.69;5050684;28;20011;-75
2023/05/17 00:59:43;;;;;;;;;;;;;;;7.84;85.14;102434.31;5050533;28;19971;-76
2023/05/17 01:02:10;;;;;;;;;;;;;;;7.85;83.17;102437.84;5053278;28;19935;-77
2023/05/17 01:04:36;;;;;;;;;;;;;;;7.85;85.49;102444.00;5053873;28;20283;-77
2023/05/17 01:07:02;;;;;;;;;;;;;;;7.84;84.87;102438.69;5056101;28;19921;-76
2023/05/17 01:09:27;;;;;;;;;;;;;;;7.82;84.17;102435.16;5049134;28;20008;-77
2023/05/17 01:12:00;;;;;;;;;;;;;;;7.81;83.07;102423.69;5054688;28;19967;-75
2023/05/17 01:14:44;;;;;;;;;;;;;;;7.75;81.79;102431.53;5047691;28;20378;-77
2023/05/17 01:17:20;;;;;;;;;;;;;;;7.67;81.78;102438.44;5042061;28;19916;-77
2023/05/17 01:19:58;;;;;;;;;;;;;;;7.61;81.29;102448.88;5048095;28;19962;-76
2023/05/17 01:22:31;;;;;;;;;;;;;;;7.54;83.84;102448.81;5024275;28;19917;-77
2023/05/17 01:25:03;;;;;;;;;;;;;;;7.55;83.31;102449.69;5049523;28;20041;-77
2023/05/17 01:27:29;;;;;;;;;;;;;;;7.55;82.72;102447.03;5028142;28;20022;-77
2023/05/17 01:29:55;;;;;;;;;;;;;;;7.52;84.85;102447.88;5044152;28;19975;-78
2023/05/17 01:32:21;;;;;;;;;;;;;;;7.54;84.58;102443.53;5053660;28;19921;-77
2023/05/17 01:34:50;;;;;;;;;;;;;;;7.53;85.64;102436.47;5053376;28;20287;-78
2023/05/17 01:37:19;;;;;;;;;;;;;;;7.54;86.61;102442.63;5054801;28;19931;-77
2023/05/17 01:39:45;;;;;;;;;;;;;;;7.54;86.34;102440.91;5034848;28;19921;-78
2023/05/17 01:42:21;;;;;;;;;;;;;;;7.56;85.16;102438.25;5050245;28;19928;-78
2023/05/17 01:44:51;;;;;;;;;;;;;;;7.59;87.38;102438.34;5053260;28;19916;-78
2023/05/17 01:47:28;;;;;;;;;;;;;;;7.59;87.17;102435.69;5039729;28;19928;-79
2023/05/17 01:49:57;;;;;;;;;;;;;;;7.55;86.63;102436.50;5043866;28;19991;-78
2023/05/17 01:52:34;;;;;;;;;;;;;;;7.54;85.61;102442.63;5046777;28;19998;-77
2023/05/17 01:55:05;;;;;;;;;;;;;;;7.50;84.51;102441.69;5049126;28;19916;-77
2023/05/17 01:57:34;;;;;;;;;;;;;;;7.46;83.07;102438.97;5055095;28;19932;-77
2023/05/17 02:00:01;;;;;;;;;;;;;;;7.43;85.97;102446.84;5044674;28;19917;-78
2023/05/17 02:02:28;;;;;;;;;;;;;;;7.42;85.95;102440.69;5053167;28;19917;-78
2023/05/17 02:04:53;;;;;;;;;;;;;;;7.40;84.73;102439.78;5035123;28;19982;-78
2023/05/17 02:07:19;;;;;;;;;;;;;;;7.40;84.44;102433.63;5053704;28;19921;-78
2023/05/17 02:09:45;;;;;;;;;;;;;;;7.39;84.36;102432.72;5046482;28;20321;-78
2023/05/17 02:12:10;;;;;;;;;;;;;;;7.40;88.65;102434.50;5051580;28;19928;-78
2023/05/17 02:14:35;;;;;;;;;;;;;;;7.43;86.82;102433.66;5052642;28;19936;-78
2023/05/17 02:17:01;;;;;;;;;;;;;;;7.40;85.02;102439.78;5032875;28;19955;-79
2023/05/17 02:19:26;;;;;;;;;;;;;;;7.39;85.09;102430.06;5035774;28;20028;-80
2023/05/17 02:21:52;;;;;;;;;;;;;;;7.38;84.69;102435.34;5043266;28;20012;-79
2023/05/17 02:24:17;;;;;;;;;;;;;;;7.38;85.33;102425.69;5027418;28;20295;-79
2023/05/17 02:26:44;;;;;;;;;;;;;;;7.42;88.19;102432.78;5052876;28;19936;-79
2023/05/17 02:29:10;;;;;;;;;;;;;;;7.43;86.42;102437.19;5049011;28;19925;-79
2023/05/17 02:31:35;;;;;;;;;;;;;;;7.44;85.57;102441.59;5042533;28;19925;-80
2023/05/17 02:34:00;;;;;;;;;;;;;;;7.43;84.92;102438.94;5049737;28;19925;-80
2023/05/17 02:36:26;;;;;;;;;;;;;;;7.44;87.33;102446.88;5046699;28;19928;-78
2023/05/17 02:38:51;;;;;;;;;;;;;;;7.47;85.61;102449.56;5048805;28;19921;-78
2023/05/17 02:41:17;;;;;;;;;;;;;;;7.49;87.73;102449.56;5050825;28;19927;-79
2023/05/17 02:43:42;;;;;;;;;;;;;;;7.50;88.98;102446.97;5051056;28;20015;-78
2023/05/17 02:46:07;;;;;;;;;;;;;;;7.54;89.14;102442.63;5035385;28;20284;-78
2023/05/17 02:48:33;;;;;;;;;;;;;;;7.59;89.52;102442.69;5049478;28;20299;-77
2023/05/17 02:50:58;;;;;;;;;;;;;;;7.60;88.19;102442.72;5052186;28;19975;-78
2023/05/17 02:53:24;;;;;;;;;;;;;;;7.63;89.79;102452.44;5041592;28;20306;-78
2023/05/17 02:55:50;;;;;;;;;;;;;;;7.64;91.84;102454.19;5045868;28;20003;-78
2023/05/17 02:58:15;;;;;;;;;;;;;;;7.67;92.61;102456.91;5047436;28;20016;-77
2023/05/17 03:00:45;;;;;;;;;;;;;;;7.70;93.46;102452.56;5046691;28;20326;-78
2023/05/17 03:03:13;;;;;;;;;;;;;;;7.73;94.67;102449.97;5049237;28;20256;-79
2023/05/17 03:05:38;;;;;;;;;;;;;;;7.78;94.05;102450.03;5035015;28;19920;-78
2023/05/17 03:08:04;;;;;;;;;;;;;;;7.80;93.34;102455.34;5051928;28;19932;-78
2023/05/17 03:10:29;;;;;;;;;;;;;;;7.81;94.64;102465.03;5037542;28;20482;-78
2023/05/17 03:12:55;;;;;;;;;;;;;;;7.83;92.46;102469.44;5031672;28;19932;-78
2023/05/17 03:15:25;;;;;;;;;;;;;;;7.85;91.71;102470.38;5036898;28;19925;-78
2023/05/17 03:17:51;;;;;;;;;;;;;;;7.87;93.11;102476.56;5038174;28;19917;-78
2023/05/17 03:20:17;;;;;;;;;;;;;;;7.89;93.35;102473.97;5028688;28;19932;-78
2023/05/17 03:22:44;;;;;;;;;;;;;;;7.90;94.84;102471.31;5034636;28;19917;-78
2023/05/17 03:25:09;;;;;;;;;;;;;;;7.91;93.91;102475.75;5051909;28;20237;-78
2023/05/17 03:27:35;;;;;;;;;;;;;;;7.89;94.14;102472.19;5048447;28;19952;-79
2023/05/17 03:30:01;;;;;;;;;;;;;;;7.88;95.05;102475.69;5050112;28;19943;-78
2023/05/17 03:32:28;;;;;;;;;;;;;;;7.88;94.33;102480.97;5042527;28;19925;-78
2023/05/17 03:34:53;;;;;;;;;;;;;;;7.89;95.05;102479.25;5031114;28;19975;-78
2023/05/17 03:37:19;;;;;;;;;;;;;;;7.90;93.35;102486.28;5049074;28;19921;-78
2023/05/17 03:39:46;;;;;;;;;;;;;;;7.92;94.28;102489.81;5033993;28;20375;-78
2023/05/17 03:42:11;;;;;;;;;;;;;;;7.93;93.99;102492.47;5044634;28;19928;-78
2023/05/17 03:44:37;;;;;;;;;;;;;;;7.93;94.88;102492.47;5032921;28;19924;-78
2023/05/17 03:47:05;;;;;;;;;;;;;;;7.92;95.51;102493.34;5043735;28;19917;-79
2023/05/17 03:49:31;;;;;;;;;;;;;;;7.88;93.75;102491.50;5017875;28;19924;-79
2023/05/17 03:51:56;;;;;;;;;;;;;;;7.87;93.88;102502.94;5042936;28;20307;-79
2023/05/17 03:54:22;;;;;;;;;;;;;;;7.86;94.39;102492.34;5051058;28;20035;-79
2023/05/17 03:56:49;;;;;;;;;;;;;;;7.84;93.82;102500.25;5034601;28;19924;-79
2023/05/17 03:59:15;;;;;;;;;;;;;;;7.83;93.57;102495.84;5050095;28;20328;-79
2023/05/17 04:01:42;;;;;;;;;;;;;;;7.83;92.63;102500.22;5044311;28;19960;-77
2023/05/17 04:04:08;;;;;;;;;;;;;;;7.81;92.12;102504.59;5033232;28;20451;-80
2023/05/17 04:06:33;;;;;;;;;;;;;;;7.80;92.69;102503.69;5034076;28;19921;-79
2023/05/17 04:09:02;;;;;;;;;;;;;;;7.78;92.67;102505.41;5049436;28;20063;-79
2023/05/17 04:11:28;;;;;;;;;;;;;;;7.76;91.18;102509.78;5050581;28;19917;-79
2023/05/17 04:13:55;;;;;;;;;;;;;;;7.74;92.27;102512.41;5050344;28;19929;-79
2023/05/17 04:16:21;;;;;;;;;;;;;;;7.72;91.44;102506.22;5042032;28;19925;-79
2023/05/17 04:18:51;;;;;;;;;;;;;;;7.72;91.93;102511.50;5043460;28;19933;-79
2023/05/17 04:21:17;;;;;;;;;;;;;;;7.71;90.96;102514.09;5041695;28;20311;-79
2023/05/17 04:23:43;;;;;;;;;;;;;;;7.67;90.33;102514.91;5049573;28;19916;-77
2023/05/17 04:26:09;;;;;;;;;;;;;;;7.67;90.73;102515.81;5050650;28;19932;-77
2023/05/17 04:28:37;;;;;;;;;;;;;;;7.68;90.55;102529.88;5028600;28;19917;-77
2023/05/17 04:31:05;;;;;;;;;;;;;;;7.68;89.88;102525.47;5043201;28;20276;-79
2023/05/17 04:33:31;;;;;;;;;;;;;;;7.68;89.81;102535.13;5046902;28;19968;-77
2023/05/17 04:35:57;;;;;;;;;;;;;;;7.67;91.31;102538.66;5043403;28;19956;-79
2023/05/17 04:38:24;;;;;;;;;;;;;;;7.67;91.06;102539.53;5047350;28;19913;-79
2023/05/17 04:40:50;;;;;;;;;;;;;;;7.70;90.27;102533.44;5051284;28;19917;-79
2023/05/17 04:43:20;;;;;;;;;;;;;;;7.71;90.00;102541.34;5088360;28;19916;-79
2023/05/17 04:46:09;;;;;;;;;;;;;;;7.68;89.69;102533.38;5085066;28;19927;-79
2023/05/17 04:48:42;;;;;;;;;;;;;;;7.78;91.16;102541.47;5047429;28;19940;-79
2023/05/17 04:51:10;;;;;;;;;;;;;;;7.82;92.20;102548.56;5072167;28;20503;-77
2023/05/17 04:53:44;;;;;;;;;;;;;;;7.84;91.43;102549.47;5003108;28;20387;-77
2023/05/17 04:56:22;;;;;;;;;;;;;;;7.85;91.15;102557.41;5003106;28;19940;-77
2023/05/17 04:58:48;;;;;;;;;;;;;;;7.89;91.18;102559.25;4961298;28;19921;-76
2023/05/17 05:01:13;;;;;;;;;;;;;;;7.95;91.35;102558.47;5002752;28;20293;-77
2023/05/17 05:03:41;;;;;;;;;;;;;;;8.02;91.90;102560.34;4996862;28;19938;-79
2023/05/17 05:06:08;;;;;;;;;;;;;;;8.08;92.05;102562.19;4992685;28;20032;-79
2023/05/17 05:08:45;;;;;;;;;;;;;;;8.13;91.95;102566.66;4977492;28;20451;-79
2023/05/17 05:11:19;;;;;;;;;;;;;;;8.21;91.78;102571.16;4969075;28;20013;-79
2023/05/17 05:14:03;;;;;;;;;;;;;;;8.30;91.04;102571.31;4968571;28;20433;-79
2023/05/17 05:16:42;;;;;;;;;;;;;;;8.46;96.05;102576.00;4979620;28;19918;-79
2023/05/17 05:22:07;;;;;;;;;;;;;;;8.75;94.11;102583.44;4951546;28;19930;-79
2023/05/17 05:24:37;;;;;;;;;;;;;;;8.86;92.85;102586.25;4969796;28;19918;-79
2023/05/17 05:27:03;;;;;;;;;;;;;;;8.95;94.51;102584.59;4955480;28;19968;-79
2023/05/17 05:29:30;;;;;;;;;;;;;;;9.03;94.09;102595.28;4964833;28;19992;-77
2023/05/17 05:31:56;;;;;;;;;;;;;;;9.10;93.78;102590.94;4989628;28;19956;-77
2023/05/17 05:34:21;;;;;;;;;;;;;;;9.15;92.47;102591.88;4968244;28;20384;-78
2023/05/17 05:36:47;;;;;;;;;;;;;;;9.21;91.96;102595.47;4993011;28;19933;-77
2023/05/17 05:39:15;;;;;;;;;;;;;;;9.29;92.24;102597.34;4992909;28;20048;-77
2023/05/17 05:41:40;;;;;;;;;;;;;;;9.34;88.36;102591.22;4974420;28;20490;-79
2023/05/17 05:44:06;;;;;;;;;;;;;;;9.43;91.16;102603.66;4987761;28;20012;-77
2023/05/17 05:46:31;;;;;;;;;;;;;;;9.47;89.18;102595.78;5028621;28;19920;-77
2023/05/17 05:48:58;;;;;;;;;;;;;;;9.58;90.53;102597.66;5010885;28;19929;-79
2023/05/17 05:51:24;;;;;;;;;;;;;;;9.65;91.35;102605.66;5045280;28;19928;-77
2023/05/17 05:53:53;;;;;;;;;;;;;;;9.71;90.59;102610.13;5045440;28;20339;-77
2023/05/17 05:56:18;;;;;;;;;;;;;;;9.77;89.47;102611.97;5041742;28;19924;-77
2023/05/17 05:58:44;;;;;;;;;;;;;;;9.81;89.67;102613.75;5038756;28;19921;-77
2023/05/17 06:01:09;;;;;;;;;;;;;;;9.86;89.43;102618.19;5047244;28;20326;-78
2023/05/17 06:03:36;;;;;;;;;;;;;;;9.92;88.12;102621.81;5046023;28;20003;-77
2023/05/17 06:06:01;;;;;;;;;;;;;;;9.95;88.67;102633.31;5046323;28;19967;-77
2023/05/17 06:08:26;;;;;;;;;;;;;;;9.99;87.69;102626.25;5041634;28;20391;-77
2023/05/17 06:10:52;;;;;;;;;;;;;;;10.01;86.72;102630.69;5052261;28;20280;-77
2023/05/17 06:13:20;;;;;;;;;;;;;;;10.06;86.09;102628.09;5049367;28;19921;-77
2023/05/17 06:15:45;;;;;;;;;;;;;;;10.11;86.06;102631.66;5045274;28;19971;-77
2023/05/17 06:18:10;;;;;;;;;;;;;;;10.19;86.07;102631.72;5026182;28;19925;-77
2023/05/17 06:20:36;;;;;;;;;;;;;;;10.27;84.57;102638.00;5049350;28;19978;-77
2023/05/17 06:23:03;;;;;;;;;;;;;;;10.31;82.97;102639.81;5053872;28;19924;-77
2023/05/17 06:25:29;;;;;;;;;;;;;;;10.34;82.74;102650.44;5047822;28;19928;-77
2023/05/17 06:27:54;;;;;;;;;;;;;;;10.40;82.44;102649.59;5051680;28;20300;-77
2023/05/17 06:30:20;;;;;;;;;;;;;;;10.45;80.78;102661.13;5049012;28;20027;-77
2023/05/17 06:32:46;;;;;;;;;;;;;;;10.48;79.77;102662.03;5052464;28;20004;-77
2023/05/17 06:35:11;;;;;;;;;;;;;;;10.49;77.87;102652.31;5041096;28;19947;-77
2023/05/17 06:37:36;;;;;;;;;;;;;;;10.52;77.94;102661.16;5053775;28;19924;-77
2023/05/17 06:40:04;;;;;;;;;;;;;;;10.53;77.51;102655.00;5051981;28;19913;-77
2023/05/17 06:42:29;;;;;;;;;;;;;;;10.57;78.13;102652.38;5054244;28;19917;-76
2023/05/17 06:44:55;;;;;;;;;;;;;;;10.63;77.12;102655.97;5052052;28;20454;-76
2023/05/17 06:47:20;;;;;;;;;;;;;;;10.67;77.08;102656.88;5037970;28;19927;-77
2023/05/17 06:49:45;;;;;;;;;;;;;;;10.75;77.67;102650.72;5053438;28;19917;-77
2023/05/17 06:52:11;;;;;;;;;;;;;;;10.88;76.17;102662.31;5053211;28;20263;-77
2023/05/17 06:54:36;;;;;;;;;;;;;;;10.92;75.81;102664.06;5052648;28;19971;-78
2023/05/17 06:57:02;;;;;;;;;;;;;;;10.97;74.95;102662.34;5052921;28;20081;-77
2023/05/17 06:59:27;;;;;;;;;;;;;;;11.04;74.64;102663.28;5051655;28;20260;-77
2023/05/17 07:01:53;;;;;;;;;;;;;;;11.17;74.57;102664.22;5051610;28;19927;-77
2023/05/17 07:04:19;;;;;;;;;;;;;;;11.28;74.77;102667.81;5051712;28;20020;-77
2023/05/17 07:06:44;;;;;;;;;;;;;;;11.30;72.16;102662.50;5052797;28;20298;-78
2023/05/17 07:09:10;;;;;;;;;;;;;;;11.33;74.16;102663.41;5052907;28;20279;-77
2023/05/17 07:11:35;;;;;;;;;;;;;;;11.39;74.54;102671.38;5051406;28;19920;-77
2023/05/17 07:14:01;;;;;;;;;;;;;;;11.38;70.88;102674.03;5052598;28;19971;-78
2023/05/17 07:16:26;;;;;;;;;;;;;;;11.35;72.33;102680.22;5052802;28;19970;-77
2023/05/17 07:18:55;;;;;;;;;;;;;;;11.36;70.52;102681.97;5051462;28;19928;-78
2023/05/17 07:21:22;;;;;;;;;;;;;;;11.42;71.09;102673.16;5040714;28;19920;-78
2023/05/17 07:23:48;;;;;;;;;;;;;;;11.52;70.49;102675.00;5052509;28;20009;-78
2023/05/17 07:26:13;;;;;;;;;;;;;;;11.64;71.51;102674.13;5051342;28;19964;-77
2023/05/17 07:28:38;;;;;;;;;;;;;;;11.76;69.30;102679.47;5038046;28;20292;-78
2023/05/17 07:31:04;;;;;;;;;;;;;;;11.89;70.96;102671.56;5052749;28;19921;-78
2023/05/17 07:33:29;;;;;;;;;;;;;;;12.02;70.22;102678.69;5052502;28;19925;-78
2023/05/17 07:35:55;;;;;;;;;;;;;;;12.16;68.70;102681.34;5042882;28;19998;-78
2023/05/17 07:38:20;;;;;;;;;;;;;;;12.23;65.59;102686.66;5058866;28;19923;-78
2023/05/17 07:40:46;;;;;;;;;;;;;;;12.22;66.70;102686.69;5051923;28;19920;-78
2023/05/17 07:43:11;;;;;;;;;;;;;;;12.21;63.54;102690.19;5051174;28;20380;-78
2023/05/17 07:45:36;;;;;;;;;;;;;;;12.28;63.89;102691.97;5046127;28;19964;-77
2023/05/17 07:48:02;;;;;;;;;;;;;;;12.26;63.47;102696.41;5052289;28;19983;-77
2023/05/17 07:50:28;;;;;;;;;;;;;;;12.23;63.88;102694.63;5052196;28;19917;-77
2023/05/17 07:52:53;;;;;;;;;;;;;;;12.27;64.48;102695.53;5052474;28;19929;-76
2023/05/17 07:55:20;;;;;;;;;;;;;;;12.44;66.04;102703.50;5050730;28;19912;-76
2023/05/17 07:57:46;;;;;;;;;;;;;;;12.66;65.95;102699.97;5052231;28;20283;-76
2023/05/17 08:00:12;;;;;;;;;;;;;;;12.73;63.06;102706.13;5051918;28;19970;-76
2023/05/17 08:02:39;;;;;;;;;;;;;;;12.65;63.06;102700.81;5040954;28;20027;-77
2023/05/17 08:05:04;;;;;;;;;;;;;;;12.52;62.12;102703.50;5048568;28;19919;-77
2023/05/17 08:07:30;;;;;;;;;;;;;;;12.39;62.00;102707.94;5051028;28;20319;-76
2023/05/17 08:09:55;;;;;;;;;;;;;;;12.33;61.55;102708.81;5052181;28;19916;-76
2023/05/17 08:12:20;;;;;;;;;;;;;;;12.40;63.12;102715.91;5055242;28;19963;-77
2023/05/17 08:14:46;;;;;;;;;;;;;;;12.48;61.00;102710.56;5056070;28;19929;-76
2023/05/17 08:17:11;;;;;;;;;;;;;;;12.51;64.09;102704.38;5054745;28;19923;-76
2023/05/17 08:19:37;;;;;;;;;;;;;;;12.63;61.82;102705.25;5049714;28;19956;-76
2023/05/17 08:22:03;;;;;;;;;;;;;;;12.79;59.54;102708.81;5052032;28;19923;-76
2023/05/17 08:24:28;;;;;;;;;;;;;;;12.93;55.80;102708.75;5056030;28;19916;-75
2023/05/17 08:26:53;;;;;;;;;;;;;;;13.06;57.37;102712.31;5054467;28;20515;-76
2023/05/17 08:29:19;;;;;;;;;;;;;;;13.24;58.46;102712.25;5043227;28;19928;-76
2023/05/17 08:31:44;;;;;;;;;;;;;;;13.43;58.57;102709.56;5056028;28;19909;-76
2023/05/17 08:34:10;;;;;;;;;;;;;;;13.62;58.51;102702.38;5055682;28;19928;-76
2023/05/17 08:36:35;;;;;;;;;;;;;;;13.78;57.26;102712.06;5055994;28;20000;-76
2023/05/17 08:39:01;;;;;;;;;;;;;;;13.90;56.92;102700.47;5055627;28;19963;-76
2023/05/17 08:41:26;;;;;;;;;;;;;;;14.03;56.40;102707.47;5055630;28;19917;-76
2023/05/17 08:43:53;;;;;;;;;;;;;;;14.15;56.07;102702.06;5055435;28;19939;-76
2023/05/17 08:46:22;;;;;;;;;;;;;;;14.27;56.59;102706.41;5054575;28;19940;-76
2023/05/17 08:48:51;;;;;;;;;;;;;;;14.37;57.57;102713.44;5054406;28;19921;-76
2023/05/17 08:51:18;;;;;;;;;;;;;;;14.53;57.34;102706.22;5055599;28;19927;-76
2023/05/17 08:53:46;;;;;;;;;;;;;;;14.74;56.77;102704.28;5054024;28;20427;-76
2023/05/17 08:56:13;;;;;;;;;;;;;;;14.95;55.55;102716.50;5055135;28;19916;-76
2023/05/17 08:58:41;;;;;;;;;;;;;;;15.03;54.75;102710.22;5055514;28;19913;-76
2023/05/17 09:01:07;;;;;;;;;;;;;;;15.12;55.15;102714.53;5055378;28;19921;-76
2023/05/17 09:03:34;;;;;;;;;;;;;;;14.97;52.42;102712.03;5044378;28;19920;-76
2023/05/17 09:05:59;;;;;;;;;;;;;;;14.71;53.39;102714.97;5049487;28;19921;-76
2023/05/17 09:08:25;;;;;;;;;;;;;;;14.60;54.78;102709.72;5055384;28;19974;-77
2023/05/17 09:10:51;;;;;;;;;;;;;;;14.65;55.88;102713.25;5055009;28;19921;-76
2023/05/17 09:13:17;;;;;;;;;;;;;;;14.76;54.32;102714.03;5053714;28;20256;-76
2023/05/17 09:15:43;;;;;;;;;;;;;;;14.98;56.56;102704.00;5055064;28;19921;-76
2023/05/17 09:18:11;;;;;;;;;;;;;;;15.31;53.01;102717.03;5039415;28;19912;-76
2023/05/17 09:20:38;;;;;;;;;;;;;;;15.54;53.62;102716.75;5052958;28;19917;-76
2023/05/17 09:23:05;;;;;;;;;;;;;;;15.73;54.45;102712.97;5054194;28;19935;-75
2023/05/17 09:25:31;;;;;;;;;;;;;;;15.82;54.90;102707.47;5054591;28;19923;-76
2023/05/17 09:28:04;;;;;;;;;;;;;;;15.73;54.70;102712.97;5045047;28;19929;-76
2023/05/17 09:30:30;;;;;;;;;;;;;;;15.57;54.30;102722.91;5044542;28;20011;-76
2023/05/17 09:32:59;;;;;;;;;;;;;;;15.44;54.65;102723.97;5053296;28;19917;-76
2023/05/17 09:35:28;;;;;;;;;;;;;;;15.44;55.49;102718.63;5053413;28;19921;-76
2023/05/17 09:38:02;;;;;;;;;;;;;;;15.51;53.88;102716.78;5044031;28;19929;-76
2023/05/17 09:40:28;;;;;;;;;;;;;;;15.37;54.99;102719.59;5047579;28;20295;-80
2023/05/17 09:42:54;;;;;;;;;;;;;;;15.54;54.15;102717.63;5053516;28;19917;-79
2023/05/17 09:45:25;;;;;;;;;;;;;;;15.84;54.89;102703.00;5053214;28;20457;-80
2023/05/17 09:47:51;;;;;;;;;;;;;;;16.05;53.84;102715.16;5038770;28;19940;-81
2023/05/17 09:50:20;;;;;;;;;;;;;;;16.17;52.11;102711.44;5052683;28;20399;-80
2023/05/17 09:52:45;;;;;;;;;;;;;;;16.03;51.44;102713.44;5053014;28;20005;-81
2023/05/17 09:55:11;;;;;;;;;;;;;;;15.83;54.62;102721.72;5051579;28;20247;-76
2023/05/17 09:57:37;;;;;;;;;;;;;;;15.86;52.71;102711.88;5021118;28;19927;-76
2023/05/17 10:00:08;;;;;;;;;;;;;;;16.03;53.46;102703.63;5052997;28;19913;-76
2023/05/17 10:02:35;;;;;;;;;;;;;;;16.20;53.25;102707.84;5053334;28;19916;-76
2023/05/17 10:05:04;;;;;;;;;;;;;;;16.41;49.67;102699.44;5045903;28;20359;-76
2023/05/17 10:07:30;;;;;;;;;;;;;;;16.65;49.61;102710.66;5045391;28;19943;-76
2023/05/17 10:09:57;;;;;;;;;;;;;;;16.73;48.54;102706.91;5037481;28;20320;-76
2023/05/17 10:12:24;;;;;;;;;;;;;;;16.64;49.78;102712.44;5051548;28;19924;-75
2023/05/17 10:14:49;;;;;;;;;;;;;;;16.65;48.82;102708.84;5052474;28;19917;-76
2023/05/17 10:17:16;;;;;;;;;;;;;;;16.70;45.63;102708.78;5034957;28;19921;-76
2023/05/17 10:19:42;;;;;;;;;;;;;;;16.76;49.73;102716.66;5052357;28;19923;-76
2023/05/17 10:22:07;;;;;;;;;;;;;;;16.82;44.74;102716.63;5052919;28;19920;-76
2023/05/17 10:24:34;;;;;;;;;;;;;;;16.59;47.24;102719.63;5051325;28;19917;-76
2023/05/17 10:27:01;;;;;;;;;;;;;;;16.38;46.45;102723.56;4985417;28;1858370;-76
2023/05/17 10:29:27;;;;;;;;;;;;;;;16.54;50.11;102717.06;5036728;28;19917;-76
2023/05/17 10:31:54;;;;;;;;;;;;;;;16.75;47.12;102706.91;5048882;28;20280;-76
2023/05/17 10:34:19;;;;;;;;;;;;;;;17.00;47.59;102706.47;5040493;28;19921;-76
2023/05/17 10:36:45;;;;;;;;;;;;;;;17.14;49.31;102707.09;5053217;28;19928;-76
2023/05/17 10:39:11;;;;;;;;;;;;;;;17.28;42.23;102705.00;5051985;28;19916;-75
2023/05/17 10:41:39;;;;;;;;;;;;;;;17.25;40.56;102707.75;5031927;28;20400;-75
2023/05/17 10:44:06;;;;;;;;;;;;;;;17.29;43.48;102705.91;5050664;28;20015;-76
2023/05/17 10:46:32;;;;;;;;;;;;;;;17.37;40.23;102691.44;5052946;28;19923;-75
2023/05/17 10:48:59;;;;;;;;;;;;;;;17.47;44.98;102700.16;5051746;28;19916;-76
2023/05/17 10:51:31;;;;;;;;;;;;;;;17.70;45.28;102701.47;5051804;28;19923;-75
2023/05/17 10:54:09;;;;;;;;;;;;;;;17.78;42.55;102703.06;5052842;28;20291;-76
2023/05/17 10:56:38;;;;;;;;;;;;;;;17.91;44.54;102697.47;5053171;28;20279;-76
2023/05/17 10:59:23;;;;;;;;;;;;;;;18.08;46.04;102692.59;5037418;28;19979;-76
2023/05/17 11:01:53;;;;;;;;;;;;;;;18.21;46.06;102682.44;5052997;28;20355;-76
2023/05/17 11:04:21;;;;;;;;;;;;;;;18.41;44.92;102682.81;5052620;28;20406;-76
2023/05/17 11:06:46;;;;;;;;;;;;;;;18.65;44.47;102684.00;5052539;28;19971;-76
2023/05/17 11:09:15;;;;;;;;;;;;;;;18.79;42.89;102680.06;5052636;28;20345;-76
2023/05/17 11:11:59;;;;;;;;;;;;;;;18.95;43.81;102680.56;5052475;28;20361;-76
2023/05/17 11:14:25;;;;;;;;;;;;;;;18.93;44.92;102685.09;5051014;28;20359;-76
2023/05/17 11:16:55;;;;;;;;;;;;;;;18.84;42.38;102678.16;5050988;28;19917;-76
2023/05/17 11:19:20;;;;;;;;;;;;;;;18.84;42.75;102681.72;5052403;28;19924;-76
2023/05/17 11:21:47;;;;;;;;;;;;;;;18.79;40.29;102683.66;5052297;28;19917;-75
2023/05/17 11:24:15;;;;;;;;;;;;;;;18.84;41.25;102686.19;5052255;28;19971;-76
2023/05/17 11:26:43;;;;;;;;;;;;;;;18.88;42.31;102682.53;5050148;28;20117;-76
2023/05/17 11:29:09;;;;;;;;;;;;;;;19.00;42.07;102694.72;5051883;28;19968;-76
2023/05/17 11:31:35;;;;;;;;;;;;;;;19.20;42.07;102680.75;5033186;28;19960;-76
2023/05/17 11:34:04;;;;;;;;;;;;;;;19.34;43.14;102691.97;5052290;28;19924;-75
2023/05/17 11:36:30;;;;;;;;;;;;;;;19.25;35.18;102686.84;5050750;28;19924;-74
2023/05/17 11:39:09;;;;;;;;;;;;;;;19.01;40.39;102688.44;5052165;28;19917;-76
2023/05/17 11:41:36;;;;;;;;;;;;;;;19.33;42.68;102684.81;5050486;28;20463;-76
2023/05/17 11:44:02;;;;;;;;;;;;;;;19.62;40.25;102672.31;5052115;28;20373;-76
2023/05/17 11:46:29;;;;;;;;;;;;;;;19.84;41.44;102672.56;5044914;28;20065;-76
2023/05/17 11:48:55;;;;;;;;;;;;;;;19.89;39.65;102684.94;5052272;28;20015;-76
2023/05/17 11:51:21;;;;;;;;;;;;;;;19.84;41.45;102678.81;5052145;28;20272;-76
2023/05/17 11:53:47;;;;;;;;;;;;;;;20.03;43.19;102683.59;5052438;28;19939;-76
2023/05/17 11:56:13;;;;;;;;;;;;;;;20.26;37.53;102678.38;5051977;28;20012;-76
2023/05/17 11:58:41;;;;;;;;;;;;;;;20.19;37.19;102676.81;5052185;28;20070;-76
2023/05/17 12:01:07;;;;;;;;;;;;;;;20.01;38.84;102682.81;5052243;28;20008;-76
2023/05/17 12:03:33;;;;;;;;;;;;;;;20.05;42.10;102677.25;5059978;28;20367;-76
2023/05/17 12:06:06;;;;;;;;;;;;;;;20.36;42.37;102681.63;5048498;28;20015;-76
2023/05/17 12:08:35;;;;;;;;;;;;;;;20.57;38.34;102682.72;5052713;28;19986;-76
2023/05/17 12:11:01;;;;;;;;;;;;;;;20.44;40.61;102681.34;5069437;28;19948;-76
2023/05/17 12:13:28;;;;;;;;;;;;;;;20.43;41.21;102669.72;5056532;28;20384;-76
2023/05/17 12:15:55;;;;;;;;;;;;;;;20.59;41.42;102670.97;5069503;28;19917;-76
2023/05/17 12:18:21;;;;;;;;;;;;;;;20.78;40.82;102675.72;5038779;28;19924;-76
2023/05/17 12:20:53;;;;;;;;;;;;;;;21.05;41.69;102671.16;5057944;28;19925;-76
2023/05/17 12:23:24;;;;;;;;;;;;;;;21.26;39.58;102680.22;5047626;28;20231;-76
2023/05/17 12:25:49;;;;;;;;;;;;;;;21.36;38.04;102670.84;5049310;28;20015;-76
2023/05/17 12:28:17;;;;;;;;;;;;;;;21.34;35.13;102674.53;5058478;28;20118;-76
2023/05/17 12:30:43;;;;;;;;;;;;;;;21.31;38.99;102671.97;5069371;28;19917;-76
2023/05/17 12:33:09;;;;;;;;;;;;;;;21.38;37.91;102671.69;5047319;28;20366;-76
2023/05/17 12:35:34;;;;;;;;;;;;;;;21.49;40.59;102671.31;5040002;28;19939;-76
2023/05/17 12:38:00;;;;;;;;;;;;;;;21.61;37.46;102669.94;5051907;28;19916;-76
2023/05/17 12:40:26;;;;;;;;;;;;;;;21.61;37.29;102676.25;5051313;28;20002;-76
2023/05/17 12:42:59;;;;;;;;;;;;;;;21.59;36.88;102677.25;5033818;28;19971;-77